KQND

Camp Nothing Hil

Camp Nothing Hil,
METAR KQND 181056Z AUTO VRB04G14KT 9999 CLR 39/04 A2985 RMK AO2 SLP085 WND DATA ESTMD T03870035
Observed Flight Rules
Oct-18 @ 10:56 UTC (an hour ago) Visual Flight Rules
Wind Visibility Clouds
Variable at 4 knots
 Gusting to 14 knots
10,000+ meters
  • Clear skies
Temperatures Readings
Current 39°C / 102°F
Dewpoint 4°C / 39°F
Humidity 11%
Altimeter 29.85" Hg
Pressure 1008.5 hPa
METAR KQND 181056Z AUTO VRB04G14KT 9999 CLR 39/04 A2985 RMK AO2 SLP085 WND DATA ESTMD T03870035
Observed Flight Rules
Oct-18 @ 10:56 UTC
(an hour ago)
VFR
Wind Visibility
Variable at 4 knots
 Gusting to 14 knots
10,000+ meters
Clouds
  • Clear skies
Temperature Dewpoint
39°C / 102°F 4°C / 39°F
Humidity Altimeter Pressure
11% 29.85" Hg 1008.5 hPa